createdAt,value
2023-03-11T00:01:11.330Z,2
2023-03-11T00:03:11.415Z,2
2023-03-11T00:05:11.592Z,2
2023-03-11T00:07:11.627Z,2
2023-03-11T00:09:11.709Z,3
2023-03-11T00:11:11.847Z,2
2023-03-11T00:13:11.915Z,3
2023-03-11T00:15:12.030Z,2
2023-03-11T00:17:12.133Z,1
2023-03-11T00:19:12.210Z,2
2023-03-11T00:21:12.306Z,2
2023-03-11T00:23:12.405Z,2
2023-03-11T00:25:12.579Z,2
2023-03-11T00:27:12.644Z,4
2023-03-11T00:29:12.713Z,3
2023-03-11T00:31:12.943Z,3
2023-03-11T00:33:12.932Z,3
2023-03-11T00:37:13.135Z,4
2023-03-11T00:39:13.241Z,2
2023-03-11T00:41:13.376Z,2
2023-03-11T00:43:13.392Z,2
2023-03-11T00:45:13.519Z,2
2023-03-11T00:47:13.582Z,3
2023-03-11T00:49:13.800Z,4
2023-03-11T00:51:13.784Z,2
2023-03-11T00:53:13.882Z,3
2023-03-11T00:55:13.982Z,2
2023-03-11T00:57:14.070Z,3
2023-03-11T00:59:14.163Z,2
2023-03-11T01:01:14.284Z,3
2023-03-11T01:03:14.332Z,4
2023-03-11T01:05:14.399Z,5
2023-03-11T01:07:14.506Z,4
2023-03-11T01:11:14.793Z,3
2023-03-11T01:13:14.758Z,2
2023-03-11T01:15:14.855Z,3
2023-03-11T01:17:14.978Z,3
2023-03-11T01:19:15.070Z,5
2023-03-11T01:21:15.144Z,4
2023-03-11T01:23:15.243Z,6
2023-03-11T01:25:15.336Z,6
2023-03-11T01:27:15.400Z,4
2023-03-11T01:29:15.581Z,5
2023-03-11T01:31:15.674Z,4
2023-03-11T01:33:15.674Z,6
2023-03-11T01:35:15.777Z,6
2023-03-11T01:37:15.854Z,4
2023-03-11T01:39:15.978Z,3
2023-03-11T01:41:16.029Z,5
2023-03-11T01:43:16.117Z,6
2023-03-11T01:45:16.212Z,7
2023-03-11T01:47:16.353Z,5
2023-03-11T01:49:16.353Z,7
2023-03-11T01:51:16.444Z,6
2023-03-11T01:53:16.535Z,6
2023-03-11T01:55:46.752Z,6
2023-03-11T01:57:46.809Z,7
2023-03-11T01:59:46.929Z,9
2023-03-11T02:01:47.151Z,8
2023-03-11T02:03:47.166Z,7
2023-03-11T02:05:47.288Z,7
2023-03-11T02:07:47.425Z,7
2023-03-11T02:09:47.551Z,7
2023-03-11T02:11:47.670Z,8
2023-03-11T02:13:47.792Z,8
2023-03-11T02:15:47.979Z,9
2023-03-11T02:17:48.175Z,10
2023-03-11T02:19:48.101Z,11
2023-03-11T02:21:48.194Z,12
2023-03-11T02:23:48.371Z,10
2023-03-11T02:25:48.415Z,8
2023-03-11T02:29:48.631Z,10
2023-03-11T02:31:48.847Z,9
2023-03-11T02:33:48.840Z,8
2023-03-11T02:35:48.936Z,9
2023-03-11T02:37:49.018Z,8
2023-03-11T02:39:49.158Z,8
2023-03-11T02:41:49.270Z,10
2023-03-11T02:43:49.357Z,9
2023-03-11T02:45:49.493Z,7
2023-03-11T02:47:49.549Z,9
2023-03-11T02:49:49.654Z,8
2023-03-11T02:51:49.784Z,8
2023-03-11T02:55:49.968Z,10
2023-03-11T02:57:50.291Z,7
2023-03-11T02:59:50.183Z,6
2023-03-11T03:01:50.312Z,7
2023-03-11T03:03:50.495Z,6
2023-03-11T03:05:50.504Z,7
2023-03-11T03:07:50.607Z,7
2023-03-11T03:09:50.749Z,6
2023-03-11T03:13:50.975Z,7
2023-03-11T03:15:51.134Z,7
2023-03-11T03:17:51.139Z,7
2023-03-11T03:19:51.269Z,7
2023-03-11T03:21:51.348Z,7
2023-03-11T03:23:51.503Z,10
2023-03-11T03:25:51.575Z,11
2023-03-11T03:27:51.690Z,13
2023-03-11T03:29:51.788Z,12
2023-03-11T03:31:52.081Z,9
2023-03-11T03:33:52.031Z,10
2023-03-11T03:35:52.143Z,10
2023-03-11T03:37:52.204Z,11
2023-03-11T03:39:52.342Z,12
2023-03-11T03:41:52.431Z,11
2023-03-11T03:43:52.545Z,11
2023-03-11T03:45:52.705Z,9
2023-03-11T03:47:52.775Z,9
2023-03-11T03:49:52.866Z,8
2023-03-11T03:51:52.958Z,12
2023-03-11T03:53:53.298Z,9
2023-03-11T03:55:53.179Z,9
2023-03-11T03:57:53.275Z,8
2023-03-11T03:59:53.397Z,8
2023-03-11T04:01:53.534Z,8
2023-03-11T04:03:53.584Z,8
2023-03-11T04:07:53.789Z,8
2023-03-11T04:09:53.884Z,8
2023-03-11T04:11:54.042Z,9
2023-03-11T04:13:54.158Z,8
2023-03-11T04:15:54.222Z,8
2023-03-11T04:17:54.353Z,6
2023-03-11T04:19:54.377Z,6
2023-03-11T04:21:54.480Z,5
2023-03-11T04:23:54.593Z,5
2023-03-11T04:25:54.690Z,5
2023-03-11T04:27:54.767Z,5
2023-03-11T04:29:54.893Z,6
2023-03-11T04:31:55.015Z,5
2023-03-11T04:33:55.094Z,4
2023-03-11T04:35:55.351Z,7
2023-03-11T04:37:55.291Z,5
2023-03-11T04:39:55.357Z,4
2023-03-11T04:41:55.482Z,4
2023-03-11T04:43:55.555Z,4
2023-03-11T04:45:55.733Z,6
2023-03-11T04:47:55.768Z,8
2023-03-11T04:49:55.860Z,20
2023-03-11T04:51:55.929Z,17
2023-03-11T04:53:56.024Z,9
2023-03-11T04:55:56.139Z,9
2023-03-11T04:57:56.255Z,12
2023-03-11T04:59:56.329Z,12
2023-03-11T05:01:56.403Z,17
2023-03-11T05:03:56.536Z,70
2023-03-11T05:05:56.618Z,29
2023-03-11T05:07:56.818Z,15
2023-03-11T05:09:56.823Z,20
2023-03-11T05:11:56.905Z,15
2023-03-11T05:13:57.036Z,18
2023-03-11T05:15:57.272Z,20
2023-03-11T05:17:57.275Z,20
2023-03-11T05:19:57.264Z,30
2023-03-11T05:21:57.352Z,22
2023-03-11T05:23:57.472Z,19
2023-03-11T05:25:57.587Z,20
2023-03-11T05:27:57.639Z,18
2023-03-11T05:29:57.733Z,16
2023-03-11T05:31:57.798Z,15
2023-03-11T05:33:57.889Z,14
2023-03-11T05:35:58.019Z,12
2023-03-11T05:37:58.110Z,11
2023-03-11T05:39:58.210Z,11
2023-03-11T05:41:58.275Z,8
2023-03-11T05:43:58.391Z,9
2023-03-11T05:45:58.473Z,9
2023-03-11T05:47:58.549Z,10
2023-03-11T05:49:58.652Z,11
2023-03-11T05:53:58.869Z,9
2023-03-11T05:55:58.948Z,11
2023-03-11T05:57:59.112Z,10
2023-03-11T05:59:59.130Z,10
2023-03-11T06:01:59.192Z,10
2023-03-11T06:03:59.428Z,12
2023-03-11T06:05:59.367Z,14
2023-03-11T06:07:59.455Z,15
2023-03-11T06:09:59.541Z,15
2023-03-11T06:11:59.750Z,15
2023-03-11T06:13:59.746Z,13
2023-03-11T06:15:59.900Z,11
2023-03-11T06:17:59.911Z,12
2023-03-11T06:20:00.043Z,15
2023-03-11T06:22:00.099Z,13
2023-03-11T06:24:00.173Z,13
2023-03-11T06:26:00.470Z,13
2023-03-11T06:28:00.465Z,16
2023-03-11T06:30:00.421Z,18
2023-03-11T06:32:00.517Z,19
2023-03-11T06:34:00.628Z,20
2023-03-11T06:36:00.790Z,18
2023-03-11T06:38:00.751Z,19
2023-03-11T06:40:30.909Z,16
2023-03-11T06:42:31.032Z,15
2023-03-11T06:44:31.142Z,18
2023-03-11T06:46:31.286Z,19
2023-03-11T06:48:31.403Z,19
2023-03-11T06:50:31.509Z,23
2023-03-11T06:52:31.729Z,20
2023-03-11T06:54:31.754Z,17
2023-03-11T06:56:31.899Z,14
2023-03-11T06:58:31.956Z,12
2023-03-11T07:00:32.099Z,11
2023-03-11T07:02:32.225Z,12
2023-03-11T07:04:32.344Z,11
2023-03-11T07:06:32.454Z,9
2023-03-11T07:08:32.571Z,9
2023-03-11T07:10:32.663Z,11
2023-03-11T07:12:32.816Z,9
2023-03-11T07:14:32.906Z,11
2023-03-11T07:16:33.069Z,11
2023-03-11T07:18:33.127Z,12
2023-03-11T07:20:33.230Z,12
2023-03-11T07:22:33.372Z,13
2023-03-11T07:24:33.460Z,12
2023-03-11T07:26:33.632Z,13
2023-03-11T07:28:33.686Z,15
2023-03-11T07:30:33.794Z,13
2023-03-11T07:32:34.070Z,13
2023-03-11T07:34:34.051Z,12
2023-03-11T07:36:34.148Z,11
2023-03-11T07:38:34.229Z,11
2023-03-11T07:40:34.367Z,13
2023-03-11T07:42:34.480Z,19
2023-03-11T07:44:34.639Z,26
2023-03-11T07:46:34.705Z,98
2023-03-11T07:48:34.822Z,32
2023-03-11T07:50:34.960Z,26
2023-03-11T07:52:35.012Z,19
2023-03-11T07:54:35.110Z,33
2023-03-11T07:56:35.316Z,19
2023-03-11T07:58:35.324Z,17
2023-03-11T08:00:35.470Z,14
2023-03-11T08:02:35.621Z,16
2023-03-11T08:04:35.669Z,16
2023-03-11T08:06:35.768Z,10
2023-03-11T08:08:35.889Z,10
2023-03-11T08:10:35.999Z,11
2023-03-11T08:12:36.111Z,13
2023-03-11T08:14:36.217Z,14
2023-03-11T08:16:36.305Z,13
2023-03-11T08:18:36.421Z,12
2023-03-11T08:20:36.527Z,12
2023-03-11T08:22:38.096Z,14
2023-03-11T08:24:36.711Z,12
2023-03-11T08:26:36.807Z,16
2023-03-11T08:28:36.932Z,13
2023-03-11T08:30:37.011Z,14
2023-03-11T08:32:37.197Z,13
2023-03-11T08:34:37.245Z,15
2023-03-11T08:36:37.323Z,14
2023-03-11T08:38:37.476Z,14
2023-03-11T08:40:37.515Z,12
2023-03-11T08:42:37.614Z,13
2023-03-11T08:44:37.707Z,14
2023-03-11T08:46:37.877Z,13
2023-03-11T08:48:37.938Z,12
2023-03-11T08:50:52.785Z,15
2023-03-11T08:52:38.196Z,12
2023-03-11T08:54:38.247Z,14
2023-03-11T08:56:38.307Z,12
2023-03-11T08:58:38.361Z,13
2023-03-11T09:00:38.465Z,12
2023-03-11T09:02:38.635Z,74
2023-03-11T09:04:38.649Z,31
2023-03-11T09:06:38.769Z,15
2023-03-11T09:08:38.832Z,20
2023-03-11T09:10:38.967Z,18
2023-03-11T09:12:39.039Z,13
2023-03-11T09:14:39.676Z,12
2023-03-11T09:16:39.278Z,16
2023-03-11T09:18:39.324Z,16
2023-03-11T09:20:39.405Z,17
2023-03-11T09:22:39.528Z,13
2023-03-11T09:24:39.627Z,13
2023-03-11T09:26:39.679Z,12
2023-03-11T09:28:39.781Z,13
2023-03-11T09:30:39.868Z,13
2023-03-11T09:32:39.995Z,10
2023-03-11T09:34:40.100Z,10
2023-03-11T09:36:40.162Z,14
2023-03-11T09:38:40.246Z,10
2023-03-11T09:40:40.350Z,9
2023-03-11T09:42:40.429Z,13
2023-03-11T09:44:40.519Z,10
2023-03-11T09:46:40.664Z,8
2023-03-11T09:48:40.666Z,168
2023-03-11T09:50:40.765Z,37
2023-03-11T09:52:40.870Z,10
2023-03-11T09:54:40.992Z,11
2023-03-11T09:56:42.881Z,13
2023-03-11T09:58:41.117Z,11
2023-03-11T10:00:41.226Z,7
2023-03-11T10:02:41.478Z,10
2023-03-11T10:04:41.366Z,11
2023-03-11T10:06:41.442Z,6
2023-03-11T10:09:11.610Z,3
2023-03-11T10:11:11.764Z,4
2023-03-11T10:13:11.869Z,6
2023-03-11T10:15:12.000Z,4
2023-03-11T10:17:12.102Z,5
2023-03-11T10:19:12.201Z,3
2023-03-11T10:21:12.332Z,4
2023-03-11T10:23:12.431Z,6
2023-03-11T10:25:12.519Z,6
2023-03-11T10:27:12.602Z,5
2023-03-11T10:29:12.717Z,5
2023-03-11T10:31:12.876Z,7
2023-03-11T10:33:12.965Z,4
2023-03-11T10:35:13.040Z,4
2023-03-11T10:37:13.129Z,2
2023-03-11T10:39:13.235Z,4
2023-03-11T10:41:13.362Z,4
2023-03-11T10:43:13.438Z,4
2023-03-11T10:45:13.553Z,11
2023-03-11T10:47:13.664Z,6
2023-03-11T10:49:13.788Z,5
2023-03-11T10:53:14.022Z,4
2023-03-11T10:55:14.080Z,3
2023-03-11T10:57:14.195Z,5
2023-03-11T10:59:14.284Z,4
2023-03-11T11:01:14.446Z,4
2023-03-11T11:03:14.522Z,7
2023-03-11T11:05:14.604Z,6
2023-03-11T11:07:14.701Z,7
2023-03-11T11:09:14.799Z,8
2023-03-11T11:11:14.986Z,6
2023-03-11T11:13:15.042Z,8
2023-03-11T11:15:15.096Z,7
2023-03-11T11:17:15.164Z,9
2023-03-11T11:19:15.329Z,7
2023-03-11T11:21:15.379Z,6
2023-03-11T11:23:15.505Z,5
2023-03-11T11:25:15.672Z,6
2023-03-11T11:27:15.710Z,7
2023-03-11T11:29:15.810Z,8
2023-03-11T11:31:16.004Z,12
2023-03-11T11:33:16.106Z,6
2023-03-11T11:35:16.231Z,7
2023-03-11T11:37:16.231Z,6
2023-03-11T11:39:16.304Z,6
2023-03-11T11:41:16.390Z,7
2023-03-11T11:43:16.493Z,10
2023-03-11T11:45:16.615Z,7
2023-03-11T11:47:16.670Z,7
2023-03-11T11:49:16.753Z,6
2023-03-11T11:51:16.865Z,12
2023-03-11T11:53:16.969Z,13
2023-03-11T11:55:17.056Z,13
2023-03-11T11:57:17.131Z,17
2023-03-11T11:59:17.246Z,10
2023-03-11T12:01:17.341Z,49
2023-03-11T12:03:17.451Z,16
2023-03-11T12:05:17.595Z,12
2023-03-11T12:07:17.609Z,20
2023-03-11T12:09:17.694Z,18
2023-03-11T12:11:18.032Z,12
2023-03-11T12:13:17.940Z,9
2023-03-11T12:15:17.945Z,11
2023-03-11T12:17:18.034Z,8
2023-03-11T12:19:18.132Z,9
2023-03-11T12:21:18.224Z,8
2023-03-11T12:23:18.290Z,8
2023-03-11T12:25:18.386Z,7
2023-03-11T12:27:18.489Z,16
2023-03-11T12:29:18.633Z,8
2023-03-11T12:31:18.730Z,8
2023-03-11T12:33:18.784Z,8
2023-03-11T12:35:18.867Z,6
2023-03-11T12:37:19.028Z,5
2023-03-11T12:39:19.004Z,7
2023-03-11T12:41:21.158Z,8
2023-03-11T12:45:19.286Z,10
2023-03-11T12:47:19.487Z,10
2023-03-11T12:49:19.421Z,8
2023-03-11T12:51:19.550Z,7
2023-03-11T12:53:19.560Z,9
2023-03-11T12:55:19.663Z,8
2023-03-11T12:57:19.755Z,7
2023-03-11T12:59:19.794Z,11
2023-03-11T13:01:19.930Z,8
2023-03-11T13:03:19.919Z,8
2023-03-11T13:05:20.014Z,6
2023-03-11T13:07:20.097Z,5
2023-03-11T13:09:20.204Z,9
2023-03-11T13:11:20.243Z,10
2023-03-11T13:13:50.388Z,12
2023-03-11T13:15:50.551Z,10
2023-03-11T13:17:50.611Z,6
2023-03-11T13:19:50.744Z,10
2023-03-11T13:21:50.885Z,10
2023-03-11T13:23:50.951Z,9
2023-03-11T13:25:51.104Z,6
2023-03-11T13:27:51.201Z,7
2023-03-11T13:29:51.287Z,7
2023-03-11T13:31:51.473Z,17
2023-03-11T13:33:51.567Z,7
2023-03-11T13:35:51.695Z,8
2023-03-11T13:37:51.768Z,4
2023-03-11T13:39:51.853Z,4
2023-03-11T13:41:52.180Z,6
2023-03-11T13:43:52.034Z,5
2023-03-11T13:45:52.184Z,5
2023-03-11T13:47:52.273Z,6
2023-03-11T13:49:52.356Z,6
2023-03-11T13:51:52.461Z,6
2023-03-11T13:53:52.532Z,5
2023-03-11T13:55:52.612Z,8
2023-03-11T13:57:52.762Z,6
2023-03-11T13:59:52.863Z,4
2023-03-11T14:01:52.981Z,8
2023-03-11T14:03:53.101Z,5
2023-03-11T14:05:53.189Z,5
2023-03-11T14:07:53.304Z,4
2023-03-11T14:09:53.392Z,6
2023-03-11T14:11:53.531Z,6
2023-03-11T14:13:53.624Z,7
2023-03-11T14:15:53.835Z,6
2023-03-11T14:17:53.857Z,7
2023-03-11T14:19:53.940Z,6
2023-03-11T14:21:54.025Z,6
2023-03-11T14:23:54.171Z,5
2023-03-11T14:25:54.270Z,8
2023-03-11T14:27:54.332Z,8
2023-03-11T14:29:54.475Z,10
2023-03-11T14:31:54.638Z,11
2023-03-11T14:33:54.679Z,7
2023-03-11T14:37:54.893Z,9
2023-03-11T14:39:54.995Z,6
2023-03-11T14:41:55.104Z,8
2023-03-11T14:43:55.192Z,9
2023-03-11T14:45:55.436Z,13
2023-03-11T14:47:55.435Z,11
2023-03-11T14:49:55.542Z,12
2023-03-11T14:51:55.654Z,9
2023-03-11T14:53:55.737Z,10
2023-03-11T14:55:55.843Z,14
2023-03-11T14:57:55.923Z,15
2023-03-11T14:59:56.057Z,10
2023-03-11T15:01:56.140Z,11
2023-03-11T15:03:56.264Z,9
2023-03-11T15:05:56.406Z,10
2023-03-11T15:07:56.451Z,9
2023-03-11T15:09:56.567Z,11
2023-03-11T15:11:56.692Z,12
2023-03-11T15:13:56.780Z,10
2023-03-11T15:15:56.890Z,13
2023-03-11T15:17:57.056Z,10
2023-03-11T15:19:57.042Z,14
2023-03-11T15:21:57.145Z,15
2023-03-11T15:23:57.220Z,10
2023-03-11T15:25:57.385Z,12
2023-03-11T15:27:57.443Z,15
2023-03-11T15:29:57.544Z,13
2023-03-11T15:31:57.624Z,15
2023-03-11T15:33:57.738Z,10
2023-03-11T15:35:57.876Z,8
2023-03-11T15:37:57.934Z,11
2023-03-11T15:39:58.048Z,13
2023-03-11T15:41:58.129Z,8
2023-03-11T15:43:58.199Z,8
2023-03-11T15:45:58.403Z,10
2023-03-11T15:47:58.442Z,8
2023-03-11T15:49:58.524Z,8
2023-03-11T15:51:58.637Z,10
2023-03-11T15:53:58.730Z,10
2023-03-11T15:56:06.615Z,26
2023-03-11T15:57:58.936Z,22
2023-03-11T15:59:59.002Z,23
2023-03-11T16:01:59.221Z,29
2023-03-11T16:03:59.303Z,17
2023-03-11T16:05:59.378Z,16
2023-03-11T16:07:59.425Z,15
2023-03-11T16:09:59.500Z,22
2023-03-11T16:11:59.625Z,14
2023-03-11T16:13:59.681Z,13
2023-03-11T16:15:59.838Z,15
2023-03-11T16:17:59.893Z,11
2023-03-11T16:19:59.962Z,14
2023-03-11T16:22:00.078Z,13
2023-03-11T16:24:00.168Z,19
2023-03-11T16:26:00.301Z,14
2023-03-11T16:28:00.362Z,18
2023-03-11T16:30:00.465Z,14
2023-03-11T16:32:00.655Z,7
2023-03-11T16:34:00.645Z,10
2023-03-11T16:36:00.871Z,19
2023-03-11T16:38:00.969Z,11
2023-03-11T16:40:00.969Z,12
2023-03-11T16:42:01.060Z,9
2023-03-11T16:44:01.150Z,17
2023-03-11T16:46:01.347Z,9
2023-03-11T16:48:01.365Z,21
2023-03-11T16:50:01.506Z,13
2023-03-11T16:52:01.622Z,20
2023-03-11T16:54:01.758Z,17
2023-03-11T16:56:01.760Z,22
2023-03-11T16:58:01.883Z,21
2023-03-11T17:00:02.046Z,31
2023-03-11T17:02:02.217Z,29
2023-03-11T17:04:02.141Z,14
2023-03-11T17:06:02.295Z,16
2023-03-11T17:08:02.368Z,18
2023-03-11T17:10:02.476Z,14
2023-03-11T17:12:02.530Z,14
2023-03-11T17:14:15.439Z,10
2023-03-11T17:16:02.819Z,17
2023-03-11T17:18:02.780Z,14
2023-03-11T17:20:02.917Z,12
2023-03-11T17:22:03.021Z,14
2023-03-11T17:24:03.088Z,9
2023-03-11T17:26:03.233Z,13
2023-03-11T17:28:03.281Z,10
2023-03-11T17:30:03.378Z,10
2023-03-11T17:32:03.460Z,9
2023-03-11T17:34:03.597Z,14
2023-03-11T17:36:03.692Z,9
2023-03-11T17:38:03.795Z,13
2023-03-11T17:40:03.859Z,13
2023-03-11T17:42:03.983Z,14
2023-03-11T17:44:04.055Z,15
2023-03-11T17:46:04.278Z,17
2023-03-11T17:48:04.311Z,21
2023-03-11T17:50:04.347Z,36
2023-03-11T17:52:04.479Z,31
2023-03-11T17:54:04.576Z,21
2023-03-11T17:56:04.644Z,20
2023-03-11T17:58:04.857Z,25
2023-03-11T18:00:04.871Z,21
2023-03-11T18:02:05.030Z,9
2023-03-11T18:04:05.154Z,9
2023-03-11T18:06:05.130Z,13
2023-03-11T18:08:05.208Z,12
2023-03-11T18:10:05.315Z,14
2023-03-11T18:12:05.421Z,16
2023-03-11T18:16:05.661Z,16
2023-03-11T18:18:05.676Z,19
2023-03-11T18:20:05.779Z,23
2023-03-11T18:22:05.847Z,25
2023-03-11T18:24:05.924Z,23
2023-03-11T18:26:06.024Z,19
2023-03-11T18:28:06.127Z,16
2023-03-11T18:30:06.270Z,15
2023-03-11T18:32:06.436Z,18
2023-03-11T18:34:06.377Z,25
2023-03-11T18:36:06.600Z,22
2023-03-11T18:38:06.602Z,43
2023-03-11T18:40:06.691Z,34
2023-03-11T18:42:06.793Z,22
2023-03-11T18:44:06.906Z,20
2023-03-11T18:46:06.986Z,20
2023-03-11T18:48:07.068Z,21
2023-03-11T18:50:07.211Z,19
2023-03-11T18:52:07.237Z,21
2023-03-11T18:54:07.316Z,22
2023-03-11T18:56:07.427Z,31
2023-03-11T18:58:07.506Z,24
2023-03-11T19:00:07.576Z,32
2023-03-11T19:02:07.694Z,33
2023-03-11T19:04:07.766Z,28
2023-03-11T19:06:07.844Z,27
2023-03-11T19:08:07.947Z,22
2023-03-11T19:10:08.090Z,19
2023-03-11T19:12:08.137Z,20
2023-03-11T19:14:08.208Z,14
2023-03-11T19:16:08.324Z,20
2023-03-11T19:18:08.376Z,33
2023-03-11T19:20:08.538Z,36
2023-03-11T19:22:08.527Z,42
2023-03-11T19:24:08.625Z,38
2023-03-11T19:26:08.755Z,36
2023-03-11T19:28:08.829Z,32
2023-03-11T19:30:08.948Z,28
2023-03-11T19:32:09.001Z,30
2023-03-11T19:34:23.763Z,34
2023-03-11T19:36:23.251Z,38
2023-03-11T19:38:23.343Z,34
2023-03-11T19:40:23.435Z,37
2023-03-11T19:42:23.596Z,31
2023-03-11T19:44:23.673Z,32
2023-03-11T19:46:23.812Z,33
2023-03-11T19:48:23.886Z,35
2023-03-11T19:50:24.085Z,32
2023-03-11T19:52:24.125Z,23
2023-03-11T19:54:24.251Z,24
2023-03-11T19:56:24.542Z,26
2023-03-11T19:58:24.489Z,24
2023-03-11T20:00:24.573Z,30
2023-03-11T20:02:24.737Z,40
2023-03-11T20:04:24.928Z,42
2023-03-11T20:06:25.020Z,49
2023-03-11T20:08:24.959Z,49
2023-03-11T20:10:25.343Z,46
2023-03-11T20:12:25.190Z,49
2023-03-11T20:14:25.301Z,48
2023-03-11T20:16:25.615Z,47
2023-03-11T20:18:25.488Z,42
2023-03-11T20:20:25.600Z,46
2023-03-11T20:22:25.782Z,39
2023-03-11T20:24:25.786Z,36
2023-03-11T20:26:25.876Z,37
2023-03-11T20:30:26.073Z,45
2023-03-11T20:32:26.235Z,42
2023-03-11T20:34:26.278Z,44
2023-03-11T20:36:26.530Z,40
2023-03-11T20:38:26.586Z,48
2023-03-11T20:40:26.534Z,46
2023-03-11T20:42:26.745Z,39
2023-03-11T20:44:26.782Z,36
2023-03-11T20:46:27.015Z,42
2023-03-11T20:48:27.027Z,31
2023-03-11T20:50:27.057Z,30
2023-03-11T20:52:27.261Z,34
2023-03-11T20:54:27.332Z,48
2023-03-11T20:56:27.384Z,29
2023-03-11T20:58:27.458Z,31
2023-03-11T21:00:27.519Z,20
2023-03-11T21:02:27.856Z,21
2023-03-11T21:04:27.748Z,19
2023-03-11T21:06:27.983Z,17
2023-03-11T21:08:28.090Z,18
2023-03-11T21:10:28.098Z,21
2023-03-11T21:12:30.980Z,22
2023-03-11T21:14:28.244Z,21
2023-03-11T21:16:28.484Z,24
2023-03-11T21:18:28.498Z,26
2023-03-11T21:20:28.771Z,17
2023-03-11T21:22:28.777Z,26
2023-03-11T21:24:28.769Z,22
2023-03-11T21:26:29.007Z,25
2023-03-11T21:28:28.999Z,16
2023-03-11T21:30:29.096Z,22
2023-03-11T21:32:29.393Z,34
2023-03-11T21:34:29.345Z,20
2023-03-11T21:36:29.503Z,13
2023-03-11T21:38:29.505Z,11
2023-03-11T21:40:29.550Z,14
2023-03-11T21:42:29.856Z,20
2023-03-11T21:44:29.842Z,19
2023-03-11T21:46:30.092Z,15
2023-03-11T21:48:30.079Z,19
2023-03-11T21:50:30.190Z,36
2023-03-11T21:52:30.128Z,42
2023-03-11T21:54:30.350Z,44
2023-03-11T21:56:30.436Z,44
2023-03-11T21:58:30.536Z,46
2023-03-11T22:00:30.718Z,44
2023-03-11T22:02:30.609Z,42
2023-03-11T22:04:30.902Z,54
2023-03-11T22:06:30.964Z,49
2023-03-11T22:08:30.873Z,48
2023-03-11T22:10:31.065Z,47
2023-03-11T22:12:31.105Z,44
2023-03-11T22:14:31.317Z,40
2023-03-11T22:16:31.569Z,54
2023-03-11T22:18:31.611Z,35
2023-03-11T22:20:31.597Z,27
2023-03-11T22:22:31.573Z,33
2023-03-11T22:24:31.626Z,30
2023-03-11T22:26:31.742Z,26
2023-03-11T22:28:31.808Z,24
2023-03-11T22:30:32.037Z,24
2023-03-11T22:32:32.012Z,31
2023-03-11T22:36:32.165Z,40
2023-03-11T22:38:32.465Z,45
2023-03-11T22:40:32.380Z,40
2023-03-11T22:42:32.453Z,42
2023-03-11T22:44:32.559Z,34
2023-03-11T22:46:32.613Z,35
2023-03-11T22:48:32.757Z,36
2023-03-11T22:50:32.814Z,35
2023-03-11T22:52:32.916Z,47
2023-03-11T22:54:33.109Z,39
2023-03-11T22:56:33.106Z,41
2023-03-11T22:58:33.229Z,46
2023-03-11T23:00:33.311Z,46
2023-03-11T23:02:33.399Z,51
2023-03-11T23:04:33.493Z,53
2023-03-11T23:06:33.564Z,51
2023-03-11T23:08:33.650Z,52
2023-03-11T23:10:33.780Z,46
2023-03-11T23:12:33.827Z,45
2023-03-11T23:14:44.094Z,53
2023-03-11T23:16:34.043Z,52
2023-03-11T23:18:34.209Z,47
2023-03-11T23:20:34.212Z,44
2023-03-11T23:22:34.303Z,41
2023-03-11T23:24:34.376Z,38
2023-03-11T23:26:34.499Z,44
2023-03-11T23:28:34.554Z,41
2023-03-11T23:30:34.716Z,39
2023-03-11T23:32:34.775Z,43
2023-03-11T23:34:34.815Z,37
2023-03-11T23:36:34.919Z,40
2023-03-11T23:38:35.006Z,40
2023-03-11T23:42:35.145Z,40
2023-03-11T23:44:35.248Z,43
2023-03-11T23:46:35.428Z,45
2023-03-11T23:48:35.429Z,45
2023-03-11T23:50:35.541Z,48
2023-03-11T23:52:35.611Z,54
2023-03-11T23:54:35.719Z,63
2023-03-11T23:58:35.919Z,64
